Accueil
METAR-TAF:

METAR-TAF

Aéroports :

Aéroport de Bergerac-Dordogne-Périgord

Bergerac, France

latitude: 44-49N, longitude: 000-31E, altitude: 51 m

Observation

Le bulletin a été fait il y a 23 minutes, à 21:00 UTC
Vent 2 kt de est/nord-est
Température 7°C
Humidité 70%
Pression 1012 hPa
Visibilité 10 km ou plus
pas de nuages en-dessous de 1500 mètres et pas de cumulonimbus.

METAR: LFBE 182100Z AUTO 06002KT CAVOK 07/02 Q1012 NOSIG

Heure: 22:23 (21:23 UTC)

Prévision

Le bulletin a été fait il y a 4 heures et 23 minutes, à 17:00 UTC
Prévision valable du 18 à 18 UTC au 19 à 18 UTC
Vent 10 kt de est
Visibilité 10 km ou plus
pas de nuages en-dessous de 1500 mètres et pas de cumulonimbus.
Evoluant progressivement
du 19 à 03 UTC au 19 à 05 UTC
Vent 2 kt de direction variable
Evoluant progressivement
du 19 à 13 UTC au 19 à 15 UTC
Vent 6 kt de nord

TAF: LFBE 181700Z 1818/1918 09010KT CAVOK BECMG 1903/1905 VRB02KT BECMG 1913/1915 36006KT

Observations et prévisions météorologiques de plus de 4000 aéroports (messages METAR et TAF).

Les stations disponibles sont représentées par des disques jaunes et rouges sur la carte.

Passer la souris dessus pour voir le nom de la station.

Cliquer dessus pour voir les observations et prévisions météorologiques.

Pour changer de carte: cliquez sur les boutons verts avec une croix noire pour zoomer, sur le bouton vert avec un tiret pour effectuer un zoom arrière, ou sur les flèches vertes pour les cartes adjacentes.


METAR-TAF: